SIA12 RJAA-KLAX
Flight info
| Callsign | SIA12 |
|---|---|
| Flight time | N/A |
| Altitude | 33000 |
| Route | BORLO Y830 LAPIL OTR13 SEALS 36N150E/N0488F350 35N160E 36N170E 39N180E 42N170W 43N160W/N0479F370 42N150W 41N140W 39N130W/N0473F390 DCT DACEM DCT PAINT DCT PIRAT DCT BURGL IRNMN2 |
| Aircraft | B77W/H-SDE1E2E3FGHIJ2J3J4J5M1RWXY/LB1D1 |
Departure
| Time | N/A |
|---|---|
| Airport | Narita International Airport (RJAA) |
Arrival
| Time | 2026-05-01 14:42 |
|---|---|
| Airport | Los Angeles International Airport (KLAX) |
| Time | Latitude | Longitude | Altitude | Speed | Heading |
|---|---|---|---|---|---|
| 2026-05-01 14:22 | 34.75078 | -119.32934 | 29851 ft | 507 kts | 146° |
| 2026-05-01 14:22 | 34.72267 | -119.30449 | 27743 ft | 509 kts | 146° |
| 2026-05-01 14:22 | 34.69460 | -119.27996 | 26229 ft | 497 kts | 146° |
| 2026-05-01 14:22 | 34.66697 | -119.25586 | 24984 ft | 479 kts | 146° |
| 2026-05-01 14:23 | 34.64032 | -119.23266 | 23868 ft | 463 kts | 146° |
| 2026-05-01 14:23 | 34.61417 | -119.21011 | 23123 ft | 458 kts | 146° |
| 2026-05-01 14:23 | 34.58847 | -119.18802 | 22520 ft | 454 kts | 146° |
| 2026-05-01 14:23 | 34.56282 | -119.16595 | 21945 ft | 450 kts | 145° |
| 2026-05-01 14:24 | 34.53749 | -119.14379 | 21384 ft | 446 kts | 144° |
| 2026-05-01 14:24 | 34.51249 | -119.12155 | 20809 ft | 443 kts | 144° |
| 2026-05-01 14:24 | 34.48789 | -119.09962 | 20271 ft | 440 kts | 144° |
| 2026-05-01 14:24 | 34.46326 | -119.07777 | 19723 ft | 436 kts | 144° |
| 2026-05-01 14:25 | 34.43884 | -119.05620 | 19194 ft | 432 kts | 144° |
| 2026-05-01 14:25 | 34.41445 | -119.03496 | 18650 ft | 429 kts | 144° |
| 2026-05-01 14:25 | 34.39048 | -119.01427 | 18087 ft | 427 kts | 144° |
| 2026-05-01 14:25 | 34.36632 | -118.99342 | 17500 ft | 424 kts | 144° |
| 2026-05-01 14:26 | 34.34241 | -118.97276 | 16952 ft | 420 kts | 143° |
| 2026-05-01 14:26 | 34.29601 | -118.93082 | 15917 ft | 411 kts | 142° |
| 2026-05-01 14:26 | 34.27330 | -118.91006 | 15439 ft | 407 kts | 142° |
| 2026-05-01 14:27 | 34.25107 | -118.88985 | 14943 ft | 403 kts | 142° |
| 2026-05-01 14:27 | 34.22877 | -118.86941 | 14463 ft | 400 kts | 142° |
| 2026-05-01 14:27 | 34.20671 | -118.84909 | 13969 ft | 396 kts | 142° |
| 2026-05-01 14:28 | 34.16315 | -118.80900 | 12943 ft | 389 kts | 141° |
| 2026-05-01 14:28 | 34.14282 | -118.78813 | 12676 ft | 378 kts | 137° |
| 2026-05-01 14:28 | 34.12388 | -118.76706 | 12505 ft | 366 kts | 136° |
| 2026-05-01 14:28 | 34.10558 | -118.74653 | 12404 ft | 352 kts | 136° |
| 2026-05-01 14:29 | 34.08783 | -118.72692 | 12320 ft | 340 kts | 137° |
| 2026-05-01 14:29 | 34.07058 | -118.70809 | 12238 ft | 327 kts | 137° |
| 2026-05-01 14:30 | 34.02863 | -118.64989 | 11672 ft | 295 kts | 103° |
| 2026-05-01 14:30 | 34.02560 | -118.62578 | 11447 ft | 288 kts | 95° |
| 2026-05-01 14:30 | 34.02357 | -118.60187 | 11148 ft | 286 kts | 95° |
| 2026-05-01 14:31 | 34.01935 | -118.55512 | 10116 ft | 275 kts | 97° |
| 2026-05-01 14:31 | 34.01724 | -118.53222 | 9412 ft | 271 kts | 97° |
| 2026-05-01 14:31 | 34.01517 | -118.51013 | 8952 ft | 259 kts | 97° |
| 2026-05-01 14:31 | 34.01319 | -118.48906 | 8523 ft | 246 kts | 97° |
| 2026-05-01 14:32 | 34.01128 | -118.46885 | 7976 ft | 241 kts | 97° |
| 2026-05-01 14:32 | 34.01082 | -118.44901 | 7438 ft | 243 kts | 82° |
| 2026-05-01 14:32 | 34.01412 | -118.42914 | 7153 ft | 241 kts | 77° |
| 2026-05-01 14:32 | 34.01788 | -118.40945 | 6835 ft | 241 kts | 77° |
| 2026-05-01 14:33 | 34.02150 | -118.38973 | 6529 ft | 241 kts | 77° |
| 2026-05-01 14:33 | 34.02501 | -118.37003 | 6215 ft | 240 kts | 77° |
| 2026-05-01 14:33 | 34.02825 | -118.35057 | 6079 ft | 232 kts | 80° |
| 2026-05-01 14:33 | 34.03029 | -118.33151 | 6037 ft | 230 kts | 82° |
| 2026-05-01 14:34 | 34.03218 | -118.31189 | 6051 ft | 239 kts | 82° |
| 2026-05-01 14:34 | 34.03416 | -118.29197 | 6034 ft | 242 kts | 81° |
| 2026-05-01 14:34 | 34.03653 | -118.27198 | 6023 ft | 240 kts | 81° |
| 2026-05-01 14:34 | 34.03898 | -118.25204 | 6019 ft | 239 kts | 81° |
| 2026-05-01 14:35 | 34.04138 | -118.23233 | 6021 ft | 237 kts | 81° |
| 2026-05-01 14:35 | 34.04372 | -118.21255 | 6018 ft | 237 kts | 81° |
| 2026-05-01 14:35 | 34.04613 | -118.19288 | 6008 ft | 236 kts | 80° |
| 2026-05-01 14:35 | 34.04767 | -118.17356 | 5901 ft | 235 kts | 95° |
| 2026-05-01 14:36 | 34.04209 | -118.15524 | 5607 ft | 236 kts | 127° |
| 2026-05-01 14:36 | 34.02927 | -118.14309 | 5219 ft | 236 kts | 159° |
| 2026-05-01 14:36 | 34.01339 | -118.13779 | 4833 ft | 237 kts | 169° |
| 2026-05-01 14:36 | 33.99721 | -118.13422 | 4504 ft | 233 kts | 177° |
| 2026-05-01 14:37 | 33.98158 | -118.13771 | 4160 ft | 229 kts | 210° |
| 2026-05-01 14:37 | 33.97050 | -118.15085 | 3842 ft | 224 kts | 244° |
| 2026-05-01 14:37 | 33.96767 | -118.16889 | 3513 ft | 221 kts | 276° |
| 2026-05-01 14:37 | 33.96989 | -118.18711 | 3142 ft | 221 kts | 276° |
| 2026-05-01 14:38 | 33.97034 | -118.20567 | 2857 ft | 217 kts | 270° |
| 2026-05-01 14:38 | 33.96996 | -118.22303 | 2743 ft | 203 kts | 266° |
| 2026-05-01 14:38 | 33.96865 | -118.23949 | 2610 ft | 190 kts | 263° |
| 2026-05-01 14:38 | 33.96706 | -118.25535 | 2527 ft | 192 kts | 262° |
| 2026-05-01 14:39 | 33.96542 | -118.27137 | 2266 ft | 190 kts | 262° |
| 2026-05-01 14:39 | 33.96387 | -118.28657 | 2008 ft | 176 kts | 262° |
| 2026-05-01 14:39 | 33.96244 | -118.30065 | 1776 ft | 165 kts | 262° |
| 2026-05-01 14:39 | 33.96104 | -118.31432 | 1577 ft | 161 kts | 262° |
| 2026-05-01 14:40 | 33.95973 | -118.32714 | 1366 ft | 149 kts | 262° |
| 2026-05-01 14:40 | 33.95850 | -118.33926 | 1155 ft | 143 kts | 262° |
| 2026-05-01 14:40 | 33.95729 | -118.35110 | 989 ft | 146 kts | 262° |
| 2026-05-01 14:40 | 33.95603 | -118.36338 | 788 ft | 148 kts | 262° |
| 2026-05-01 14:41 | 33.95478 | -118.37566 | 602 ft | 147 kts | 262° |
| 2026-05-01 14:41 | 33.95355 | -118.38782 | 404 ft | 146 kts | 262° |
| 2026-05-01 14:41 | 33.95221 | -118.39993 | 216 ft | 145 kts | 263° |
| 2026-05-01 14:41 | 33.95109 | -118.41172 | 130 ft | 132 kts | 264° |
| 2026-05-01 14:42 | 33.95021 | -118.42049 | 126 ft | 79 kts | 263° |
| 2026-05-01 14:42 | 33.94965 | -118.42479 | 128 ft | 24 kts | 246° |
| 2026-05-01 14:42 | 33.94872 | -118.42652 | 127 ft | 16 kts | 229° |
| 2026-05-01 14:42 | 33.94866 | -118.42660 | 126 ft | 1 kts | 229° |
| 2026-05-01 14:43 | 33.94858 | -118.42671 | 126 ft | 3 kts | 229° |
| 2026-05-01 14:43 | 33.94811 | -118.42734 | 125 ft | 15 kts | 225° |
| 2026-05-01 14:43 | 33.94715 | -118.42780 | 126 ft | 15 kts | 192° |
| 2026-05-01 14:43 | 33.94641 | -118.42720 | 126 ft | 15 kts | 91° |
| 2026-05-01 14:44 | 33.94647 | -118.42594 | 128 ft | 15 kts | 82° |
| 2026-05-01 14:44 | 33.94668 | -118.42386 | 129 ft | 15 kts | 83° |
| 2026-05-01 14:44 | 33.94681 | -118.42260 | 129 ft | 15 kts | 83° |
| 2026-05-01 14:45 | 33.94694 | -118.42135 | 129 ft | 15 kts | 83° |
| 2026-05-01 14:45 | 33.94719 | -118.41883 | 127 ft | 15 kts | 83° |
| 2026-05-01 14:45 | 33.94735 | -118.41716 | 128 ft | 15 kts | 83° |
| 2026-05-01 14:46 | 33.94743 | -118.41631 | 130 ft | 15 kts | 83° |
| 2026-05-01 14:46 | 33.94777 | -118.41381 | 126 ft | 15 kts | 71° |
| 2026-05-01 14:46 | 33.94724 | -118.41294 | 128 ft | 16 kts | 170° |
| 2026-05-01 14:47 | 33.94615 | -118.41272 | 127 ft | 16 kts | 172° |
| 2026-05-01 14:47 | 33.94506 | -118.41253 | 128 ft | 16 kts | 172° |
| 2026-05-01 14:47 | 33.94396 | -118.41236 | 128 ft | 16 kts | 173° |
| 2026-05-01 14:48 | 33.94224 | -118.41211 | 128 ft | 12 kts | 174° |
| 2026-05-01 14:48 | 33.94139 | -118.41200 | 127 ft | 13 kts | 174° |
| 2026-05-01 14:48 | 33.94020 | -118.41166 | 128 ft | 6 kts | 106° |
| 2026-05-01 14:49 | 33.94020 | -118.41082 | 129 ft | 0 kts | 82° |